Saint Germain, WI (54558)

7:17 PM CDT on September 02, 2015 (GMT -0500)
PlumLake- East Shore | | Change Station
CLOSE
Current Station
Personal Weather Station
Location: Sayner, WI
Elevation: 1670 ft
Nearby Weather Stations

Elev 1670 ft 46.00 °N, 89.53 °W | Updated 1 second ago

Overcast
Overcast
67.8 °F
Feels Like 67.8 °F
N
0.0
Wind Variable Wind from SSE
Gusts 0.0 mph

Today
High -- | Low -- °F
--% Chance of Precip.
Yesterday
High -- | Low -- °F
Precip. -- in
6:19 AM 7:34 PM
Waning Gibbous, 76% visible
Pressure 29.95 in
Visibility 7.0 miles
Clouds Mostly Cloudy 700 ft
Mostly Cloudy 2100 ft
Overcast 4800 ft
Dew Point 68 °F
Humidity 99%
Rainfall 0.60 in
Snow Depth Not available.
UV 0.0 out of 12
Pollen 10.00 out of 12
Air Quality Not available.
Flu Activity Not available.
METAR KEGV 022355Z AUTO 01007KT 7SM BKN007 BKN021 OVC048 20/20 A2995 RMK AO2 T01980197 10205 20196
Pressure 29.95 in
Visibility 7.0 miles
Clouds Mostly Cloudy 700 ft
Mostly Cloudy 2100 ft
Overcast 4800 ft
Dew Point 68 °F
Humidity 99%
Rainfall 0.60 in
Snow Depth Not available.
UV 0.0 out of 12
Pollen 10.00 out of 12
Air Quality Not available.
Flu Activity Not available.
METAR KEGV 022355Z AUTO 01007KT 7SM BKN007 BKN021 OVC048 20/20 A2995 RMK AO2 T01980197 10205 20196

10-Day Weather Forecast

×

Almanac

Astronomy

Sep. 02, 2015 Rise Set
Actual Time
Civil Twilight
Nautical Twilight
Astronomical Twilight
Moon
Length of Visible Light
Length of Day
Tomorrow will be .
, % of the Moon is Illuminated

Today's Extremes

State Highs State Lows

Community

WunderPhotos

Upload Photos

1,851,846 photos uploaded!

WunderBlogs® & News

Nearby

Air Quality

  Air Quality AQ Index Pollutant
Not available.

Snow Depth

Station Depth Elevation

Earthquake Activity

City Distance Mag. Time & Date
Minimum magnitude displayed is 2.5.

Coastal Water Temperatures

Place Temperature

Stations

Nearby Weather Stations

Station Location Temp. Windchill Dew Point Humidity Wind Precip. Elev Updated Type